sensor_id;sensor_type;location;lat;lon;timestamp;temperature;humidity
16180;DHT22;8196;49.428;10.906;2023-04-08T00:01:04;3.60;99.90
16180;DHT22;8196;49.428;10.906;2023-04-08T00:03:30;3.50;99.90
16180;DHT22;8196;49.428;10.906;2023-04-08T00:05:58;3.50;99.90
16180;DHT22;8196;49.428;10.906;2023-04-08T00:08:26;3.40;99.90
16180;DHT22;8196;49.428;10.906;2023-04-08T00:10:53;3.30;99.90
16180;DHT22;8196;49.428;10.906;2023-04-08T00:13:20;3.30;99.90
16180;DHT22;8196;49.428;10.906;2023-04-08T00:15:47;3.20;99.90
16180;DHT22;8196;49.428;10.906;2023-04-08T00:18:16;3.10;99.90
16180;DHT22;8196;49.428;10.906;2023-04-08T00:20:43;3.10;99.90
16180;DHT22;8196;49.428;10.906;2023-04-08T00:23:09;3.00;99.90
16180;DHT22;8196;49.428;10.906;2023-04-08T00:25:36;3.00;99.90
16180;DHT22;8196;49.428;10.906;2023-04-08T00:28:03;2.90;99.90
16180;DHT22;8196;49.428;10.906;2023-04-08T00:30:30;2.90;99.90
16180;DHT22;8196;49.428;10.906;2023-04-08T00:32:57;3.00;99.90
16180;DHT22;8196;49.428;10.906;2023-04-08T00:35:24;3.00;99.90
16180;DHT22;8196;49.428;10.906;2023-04-08T00:37:51;3.00;99.90
16180;DHT22;8196;49.428;10.906;2023-04-08T00:40:17;3.00;99.90
16180;DHT22;8196;49.428;10.906;2023-04-08T00:42:44;3.00;99.90
16180;DHT22;8196;49.428;10.906;2023-04-08T00:45:12;3.00;99.90
16180;DHT22;8196;49.428;10.906;2023-04-08T00:47:39;3.00;99.90
16180;DHT22;8196;49.428;10.906;2023-04-08T00:50:08;3.00;99.90
16180;DHT22;8196;49.428;10.906;2023-04-08T00:52:36;3.00;99.90
16180;DHT22;8196;49.428;10.906;2023-04-08T00:55:03;3.00;99.90
16180;DHT22;8196;49.428;10.906;2023-04-08T00:57:30;3.00;99.90
16180;DHT22;8196;49.428;10.906;2023-04-08T00:59:57;3.00;99.90
16180;DHT22;8196;49.428;10.906;2023-04-08T01:02:45;3.10;99.90
16180;DHT22;8196;49.428;10.906;2023-04-08T01:05:25;3.00;99.90
16180;DHT22;8196;49.428;10.906;2023-04-08T01:07:52;3.00;99.90
16180;DHT22;8196;49.428;10.906;2023-04-08T01:10:22;3.00;99.90
16180;DHT22;8196;49.428;10.906;2023-04-08T01:12:55;2.90;99.90
16180;DHT22;8196;49.428;10.906;2023-04-08T01:15:25;2.90;99.90
16180;DHT22;8196;49.428;10.906;2023-04-08T01:17:54;2.90;99.90
16180;DHT22;8196;49.428;10.906;2023-04-08T01:20:24;2.90;99.90
16180;DHT22;8196;49.428;10.906;2023-04-08T01:23:06;2.90;99.90
16180;DHT22;8196;49.428;10.906;2023-04-08T01:25:37;2.90;99.90
16180;DHT22;8196;49.428;10.906;2023-04-08T01:30:33;2.80;99.90
16180;DHT22;8196;49.428;10.906;2023-04-08T01:33:01;2.80;99.90
16180;DHT22;8196;49.428;10.906;2023-04-08T01:35:32;2.80;99.90
16180;DHT22;8196;49.428;10.906;2023-04-08T01:38:00;2.70;99.90
16180;DHT22;8196;49.428;10.906;2023-04-08T01:40:28;2.70;99.90
16180;DHT22;8196;49.428;10.906;2023-04-08T01:42:57;2.80;99.90
16180;DHT22;8196;49.428;10.906;2023-04-08T01:45:24;2.80;99.90
16180;DHT22;8196;49.428;10.906;2023-04-08T01:47:52;2.80;99.90
16180;DHT22;8196;49.428;10.906;2023-04-08T01:50:20;2.90;99.90
16180;DHT22;8196;49.428;10.906;2023-04-08T01:52:48;2.90;99.90
16180;DHT22;8196;49.428;10.906;2023-04-08T01:55:16;2.90;99.90
16180;DHT22;8196;49.428;10.906;2023-04-08T01:57:46;2.90;99.90
16180;DHT22;8196;49.428;10.906;2023-04-08T02:00:16;2.90;99.90
16180;DHT22;8196;49.428;10.906;2023-04-08T02:02:45;3.00;99.90
16180;DHT22;8196;49.428;10.906;2023-04-08T02:05:13;3.00;99.90
16180;DHT22;8196;49.428;10.906;2023-04-08T02:07:40;3.00;99.90
16180;DHT22;8196;49.428;10.906;2023-04-08T02:10:07;3.00;99.90
16180;DHT22;8196;49.428;10.906;2023-04-08T02:12:34;3.10;99.90
16180;DHT22;8196;49.428;10.906;2023-04-08T02:15:01;3.10;99.90
16180;DHT22;8196;49.428;10.906;2023-04-08T02:17:34;3.10;99.90
16180;DHT22;8196;49.428;10.906;2023-04-08T02:22:39;3.20;99.90
16180;DHT22;8196;49.428;10.906;2023-04-08T02:25:12;3.20;99.90
16180;DHT22;8196;49.428;10.906;2023-04-08T02:27:40;3.10;99.90
16180;DHT22;8196;49.428;10.906;2023-04-08T02:30:09;3.20;99.90
16180;DHT22;8196;49.428;10.906;2023-04-08T02:32:37;3.20;99.90
16180;DHT22;8196;49.428;10.906;2023-04-08T02:35:05;3.30;99.90
16180;DHT22;8196;49.428;10.906;2023-04-08T02:37:33;3.30;99.90
16180;DHT22;8196;49.428;10.906;2023-04-08T02:40:00;3.30;99.90
16180;DHT22;8196;49.428;10.906;2023-04-08T02:42:27;3.30;99.90
16180;DHT22;8196;49.428;10.906;2023-04-08T02:44:54;3.30;99.90
16180;DHT22;8196;49.428;10.906;2023-04-08T02:47:22;3.30;99.90
16180;DHT22;8196;49.428;10.906;2023-04-08T02:49:49;3.30;99.90
16180;DHT22;8196;49.428;10.906;2023-04-08T02:52:19;3.30;99.90
16180;DHT22;8196;49.428;10.906;2023-04-08T02:54:45;3.40;99.90
16180;DHT22;8196;49.428;10.906;2023-04-08T02:57:12;3.40;99.90
16180;DHT22;8196;49.428;10.906;2023-04-08T02:59:39;3.40;99.90
16180;DHT22;8196;49.428;10.906;2023-04-08T03:02:06;3.40;99.90
16180;DHT22;8196;49.428;10.906;2023-04-08T03:04:33;3.50;99.90
16180;DHT22;8196;49.428;10.906;2023-04-08T03:06:59;3.50;99.90
16180;DHT22;8196;49.428;10.906;2023-04-08T03:09:26;3.50;99.90
16180;DHT22;8196;49.428;10.906;2023-04-08T03:11:53;3.50;99.90
16180;DHT22;8196;49.428;10.906;2023-04-08T03:14:20;3.50;99.90
16180;DHT22;8196;49.428;10.906;2023-04-08T03:16:47;3.50;99.90
16180;DHT22;8196;49.428;10.906;2023-04-08T03:19:14;3.50;99.90
16180;DHT22;8196;49.428;10.906;2023-04-08T03:21:41;3.50;99.90
16180;DHT22;8196;49.428;10.906;2023-04-08T03:24:08;3.50;99.90
16180;DHT22;8196;49.428;10.906;2023-04-08T03:26:35;3.40;99.90
16180;DHT22;8196;49.428;10.906;2023-04-08T03:29:01;3.30;99.90
16180;DHT22;8196;49.428;10.906;2023-04-08T03:31:28;3.20;99.90
16180;DHT22;8196;49.428;10.906;2023-04-08T03:33:55;3.10;99.90
16180;DHT22;8196;49.428;10.906;2023-04-08T03:36:22;3.00;99.90
16180;DHT22;8196;49.428;10.906;2023-04-08T03:38:48;3.00;99.90
16180;DHT22;8196;49.428;10.906;2023-04-08T03:41:15;2.90;99.90
16180;DHT22;8196;49.428;10.906;2023-04-08T03:43:42;2.90;99.90
16180;DHT22;8196;49.428;10.906;2023-04-08T03:46:09;2.80;99.90
16180;DHT22;8196;49.428;10.906;2023-04-08T03:48:36;2.80;99.90
16180;DHT22;8196;49.428;10.906;2023-04-08T03:51:03;2.70;99.90
16180;DHT22;8196;49.428;10.906;2023-04-08T03:53:30;2.70;99.90
16180;DHT22;8196;49.428;10.906;2023-04-08T03:55:56;2.70;99.90
16180;DHT22;8196;49.428;10.906;2023-04-08T03:58:23;2.60;99.90
16180;DHT22;8196;49.428;10.906;2023-04-08T04:00:50;2.60;99.90
16180;DHT22;8196;49.428;10.906;2023-04-08T04:03:17;2.60;99.90
16180;DHT22;8196;49.428;10.906;2023-04-08T04:05:44;2.50;99.90
16180;DHT22;8196;49.428;10.906;2023-04-08T04:08:10;2.50;99.90
16180;DHT22;8196;49.428;10.906;2023-04-08T04:10:37;2.40;99.90
16180;DHT22;8196;49.428;10.906;2023-04-08T04:13:04;2.40;99.90
16180;DHT22;8196;49.428;10.906;2023-04-08T04:15:31;2.40;99.90
16180;DHT22;8196;49.428;10.906;2023-04-08T04:17:58;2.40;99.90
16180;DHT22;8196;49.428;10.906;2023-04-08T04:20:25;2.40;99.90
16180;DHT22;8196;49.428;10.906;2023-04-08T04:22:51;2.50;99.90
16180;DHT22;8196;49.428;10.906;2023-04-08T04:25:18;2.50;99.90
16180;DHT22;8196;49.428;10.906;2023-04-08T04:27:45;2.50;99.90
16180;DHT22;8196;49.428;10.906;2023-04-08T04:30:11;2.50;99.90
16180;DHT22;8196;49.428;10.906;2023-04-08T04:32:41;2.50;99.90
16180;DHT22;8196;49.428;10.906;2023-04-08T04:35:09;2.50;99.90
16180;DHT22;8196;49.428;10.906;2023-04-08T04:37:36;2.50;99.90
16180;DHT22;8196;49.428;10.906;2023-04-08T04:40:03;2.50;99.90
16180;DHT22;8196;49.428;10.906;2023-04-08T04:42:31;2.30;99.90
16180;DHT22;8196;49.428;10.906;2023-04-08T04:44:58;2.50;99.90
16180;DHT22;8196;49.428;10.906;2023-04-08T04:47:25;2.50;99.90
16180;DHT22;8196;49.428;10.906;2023-04-08T04:49:52;2.50;99.90
16180;DHT22;8196;49.428;10.906;2023-04-08T04:52:18;2.60;99.90
16180;DHT22;8196;49.428;10.906;2023-04-08T04:54:45;2.60;99.90
16180;DHT22;8196;49.428;10.906;2023-04-08T04:57:12;2.70;99.90
16180;DHT22;8196;49.428;10.906;2023-04-08T04:59:38;2.70;99.90
16180;DHT22;8196;49.428;10.906;2023-04-08T05:02:05;2.70;99.90
16180;DHT22;8196;49.428;10.906;2023-04-08T05:04:32;2.70;99.90
16180;DHT22;8196;49.428;10.906;2023-04-08T05:06:59;2.80;99.90
16180;DHT22;8196;49.428;10.906;2023-04-08T05:09:26;2.80;99.90
16180;DHT22;8196;49.428;10.906;2023-04-08T05:11:52;2.90;99.90
16180;DHT22;8196;49.428;10.906;2023-04-08T05:14:19;2.90;99.90
16180;DHT22;8196;49.428;10.906;2023-04-08T05:16:46;3.00;99.90
16180;DHT22;8196;49.428;10.906;2023-04-08T05:19:12;3.10;99.90
16180;DHT22;8196;49.428;10.906;2023-04-08T05:21:39;3.20;99.90
16180;DHT22;8196;49.428;10.906;2023-04-08T05:24:06;3.20;99.90
16180;DHT22;8196;49.428;10.906;2023-04-08T05:26:33;3.30;99.90
16180;DHT22;8196;49.428;10.906;2023-04-08T05:28:59;3.40;99.90
16180;DHT22;8196;49.428;10.906;2023-04-08T05:31:26;3.50;99.90
16180;DHT22;8196;49.428;10.906;2023-04-08T05:33:53;3.60;99.90
16180;DHT22;8196;49.428;10.906;2023-04-08T05:36:20;3.70;99.90
16180;DHT22;8196;49.428;10.906;2023-04-08T05:38:47;3.70;99.90
16180;DHT22;8196;49.428;10.906;2023-04-08T05:41:14;3.80;99.90
16180;DHT22;8196;49.428;10.906;2023-04-08T05:43:41;3.90;99.90
16180;DHT22;8196;49.428;10.906;2023-04-08T05:46:09;4.00;99.90
16180;DHT22;8196;49.428;10.906;2023-04-08T05:48:36;4.00;99.90
16180;DHT22;8196;49.428;10.906;2023-04-08T05:51:03;4.10;99.90
16180;DHT22;8196;49.428;10.906;2023-04-08T05:53:29;4.20;99.90
16180;DHT22;8196;49.428;10.906;2023-04-08T05:55:56;4.30;99.90
16180;DHT22;8196;49.428;10.906;2023-04-08T05:58:23;4.40;99.90
16180;DHT22;8196;49.428;10.906;2023-04-08T06:00:50;4.50;99.90
16180;DHT22;8196;49.428;10.906;2023-04-08T06:03:17;4.50;99.90
16180;DHT22;8196;49.428;10.906;2023-04-08T06:05:46;4.60;99.90
16180;DHT22;8196;49.428;10.906;2023-04-08T06:08:13;4.70;99.90
16180;DHT22;8196;49.428;10.906;2023-04-08T06:10:40;4.80;99.90
16180;DHT22;8196;49.428;10.906;2023-04-08T06:13:06;5.00;99.90
16180;DHT22;8196;49.428;10.906;2023-04-08T06:15:34;5.20;99.90
16180;DHT22;8196;49.428;10.906;2023-04-08T06:18:01;5.30;99.90
16180;DHT22;8196;49.428;10.906;2023-04-08T06:20:28;5.50;99.90
16180;DHT22;8196;49.428;10.906;2023-04-08T06:22:55;5.60;99.90
16180;DHT22;8196;49.428;10.906;2023-04-08T06:25:23;5.90;99.90
16180;DHT22;8196;49.428;10.906;2023-04-08T06:27:50;6.10;99.90
16180;DHT22;8196;49.428;10.906;2023-04-08T06:30:16;6.30;99.90
16180;DHT22;8196;49.428;10.906;2023-04-08T06:32:43;6.50;99.90
16180;DHT22;8196;49.428;10.906;2023-04-08T06:35:13;6.60;99.90
16180;DHT22;8196;49.428;10.906;2023-04-08T06:37:40;6.70;99.90
16180;DHT22;8196;49.428;10.906;2023-04-08T06:40:07;6.80;99.90
16180;DHT22;8196;49.428;10.906;2023-04-08T06:42:34;6.90;99.90
16180;DHT22;8196;49.428;10.906;2023-04-08T06:45:01;7.10;99.90
16180;DHT22;8196;49.428;10.906;2023-04-08T06:47:28;7.30;99.90
16180;DHT22;8196;49.428;10.906;2023-04-08T06:49:54;7.40;99.90
16180;DHT22;8196;49.428;10.906;2023-04-08T06:52:21;7.40;99.90
16180;DHT22;8196;49.428;10.906;2023-04-08T06:54:48;6.60;99.90
16180;DHT22;8196;49.428;10.906;2023-04-08T06:57:14;7.20;99.90
16180;DHT22;8196;49.428;10.906;2023-04-08T06:59:41;7.00;99.90
16180;DHT22;8196;49.428;10.906;2023-04-08T07:02:08;6.80;99.90
16180;DHT22;8196;49.428;10.906;2023-04-08T07:04:35;6.60;99.90
16180;DHT22;8196;49.428;10.906;2023-04-08T07:07:02;6.40;99.90
16180;DHT22;8196;49.428;10.906;2023-04-08T07:09:31;6.20;99.90
16180;DHT22;8196;49.428;10.906;2023-04-08T07:11:58;6.10;99.90
16180;DHT22;8196;49.428;10.906;2023-04-08T07:14:25;6.00;99.90
16180;DHT22;8196;49.428;10.906;2023-04-08T07:16:52;6.00;99.90
16180;DHT22;8196;49.428;10.906;2023-04-08T07:19:18;5.90;99.90
16180;DHT22;8196;49.428;10.906;2023-04-08T07:21:46;5.90;99.90
16180;DHT22;8196;49.428;10.906;2023-04-08T07:24:13;5.90;99.90
16180;DHT22;8196;49.428;10.906;2023-04-08T07:26:40;6.00;99.90
16180;DHT22;8196;49.428;10.906;2023-04-08T07:29:06;6.10;99.90
16180;DHT22;8196;49.428;10.906;2023-04-08T07:31:33;6.20;99.90
16180;DHT22;8196;49.428;10.906;2023-04-08T07:34:00;6.20;99.90
16180;DHT22;8196;49.428;10.906;2023-04-08T07:36:26;6.30;99.90
16180;DHT22;8196;49.428;10.906;2023-04-08T07:38:53;6.30;99.90
16180;DHT22;8196;49.428;10.906;2023-04-08T07:41:20;6.30;99.90
16180;DHT22;8196;49.428;10.906;2023-04-08T07:43:48;6.30;99.90
16180;DHT22;8196;49.428;10.906;2023-04-08T07:46:15;6.30;99.90
16180;DHT22;8196;49.428;10.906;2023-04-08T07:48:42;6.20;99.90
16180;DHT22;8196;49.428;10.906;2023-04-08T07:51:09;6.10;99.90
16180;DHT22;8196;49.428;10.906;2023-04-08T07:53:38;6.00;99.90
16180;DHT22;8196;49.428;10.906;2023-04-08T07:56:14;5.90;99.90
16180;DHT22;8196;49.428;10.906;2023-04-08T07:58:42;6.00;99.90
16180;DHT22;8196;49.428;10.906;2023-04-08T08:01:17;6.00;99.90
16180;DHT22;8196;49.428;10.906;2023-04-08T08:03:45;6.00;99.90
16180;DHT22;8196;49.428;10.906;2023-04-08T08:06:14;6.00;99.90
16180;DHT22;8196;49.428;10.906;2023-04-08T08:08:40;6.10;99.90
16180;DHT22;8196;49.428;10.906;2023-04-08T08:11:07;6.10;99.90
16180;DHT22;8196;49.428;10.906;2023-04-08T08:13:34;6.10;99.90
16180;DHT22;8196;49.428;10.906;2023-04-08T08:16:01;6.10;99.90
16180;DHT22;8196;49.428;10.906;2023-04-08T08:18:28;6.20;99.90
16180;DHT22;8196;49.428;10.906;2023-04-08T08:20:57;6.30;99.90
16180;DHT22;8196;49.428;10.906;2023-04-08T08:23:26;6.30;99.90
16180;DHT22;8196;49.428;10.906;2023-04-08T08:26:09;6.40;99.90
16180;DHT22;8196;49.428;10.906;2023-04-08T08:28:36;6.30;99.90
16180;DHT22;8196;49.428;10.906;2023-04-08T08:31:03;6.30;99.90
16180;DHT22;8196;49.428;10.906;2023-04-08T08:33:32;6.30;99.90
16180;DHT22;8196;49.428;10.906;2023-04-08T08:35:59;6.30;99.90
16180;DHT22;8196;49.428;10.906;2023-04-08T08:38:26;6.30;99.90
16180;DHT22;8196;49.428;10.906;2023-04-08T08:40:55;6.30;99.90
16180;DHT22;8196;49.428;10.906;2023-04-08T08:43:23;6.50;99.90
16180;DHT22;8196;49.428;10.906;2023-04-08T08:45:49;6.50;99.90
16180;DHT22;8196;49.428;10.906;2023-04-08T08:48:16;6.50;99.90
16180;DHT22;8196;49.428;10.906;2023-04-08T08:50:43;6.50;99.90
16180;DHT22;8196;49.428;10.906;2023-04-08T08:53:10;6.40;99.90
16180;DHT22;8196;49.428;10.906;2023-04-08T08:55:37;6.40;99.90
16180;DHT22;8196;49.428;10.906;2023-04-08T08:58:26;6.30;99.90
16180;DHT22;8196;49.428;10.906;2023-04-08T09:00:53;6.30;99.90
16180;DHT22;8196;49.428;10.906;2023-04-08T09:10:52;6.60;99.90
16180;DHT22;8196;49.428;10.906;2023-04-08T09:13:21;6.80;99.90
16180;DHT22;8196;49.428;10.906;2023-04-08T09:16:06;7.00;99.90
16180;DHT22;8196;49.428;10.906;2023-04-08T09:18:35;7.00;99.90
16180;DHT22;8196;49.428;10.906;2023-04-08T09:21:04;7.10;99.90
16180;DHT22;8196;49.428;10.906;2023-04-08T09:23:48;7.10;99.90
16180;DHT22;8196;49.428;10.906;2023-04-08T09:26:21;7.10;99.90
16180;DHT22;8196;49.428;10.906;2023-04-08T09:29:05;7.30;99.90
16180;DHT22;8196;49.428;10.906;2023-04-08T09:31:53;7.50;99.90
16180;DHT22;8196;49.428;10.906;2023-04-08T09:34:28;6.80;99.90
16180;DHT22;8196;49.428;10.906;2023-04-08T09:36:57;7.90;99.90
16180;DHT22;8196;49.428;10.906;2023-04-08T09:39:24;7.90;99.90
16180;DHT22;8196;49.428;10.906;2023-04-08T09:41:51;7.80;99.90
16180;DHT22;8196;49.428;10.906;2023-04-08T09:44:20;7.90;99.90
16180;DHT22;8196;49.428;10.906;2023-04-08T09:51:54;8.20;99.90
16180;DHT22;8196;49.428;10.906;2023-04-08T09:57:42;8.20;99.90
16180;DHT22;8196;49.428;10.906;2023-04-08T10:00:12;6.60;99.90
16180;DHT22;8196;49.428;10.906;2023-04-08T10:05:16;8.00;99.90
16180;DHT22;8196;49.428;10.906;2023-04-08T10:07:44;7.90;99.90
16180;DHT22;8196;49.428;10.906;2023-04-08T10:10:10;7.90;99.90
16180;DHT22;8196;49.428;10.906;2023-04-08T10:12:38;7.80;99.90
16180;DHT22;8196;49.428;10.906;2023-04-08T10:15:26;7.70;99.90
16180;DHT22;8196;49.428;10.906;2023-04-08T10:17:55;7.60;99.90
16180;DHT22;8196;49.428;10.906;2023-04-08T10:23:05;7.50;99.90
16180;DHT22;8196;49.428;10.906;2023-04-08T10:25:35;7.50;99.90
16180;DHT22;8196;49.428;10.906;2023-04-08T10:30:39;7.50;99.90
16180;DHT22;8196;49.428;10.906;2023-04-08T10:33:11;7.50;99.90
16180;DHT22;8196;49.428;10.906;2023-04-08T10:35:41;7.50;99.90
16180;DHT22;8196;49.428;10.906;2023-04-08T10:38:08;7.70;99.90
16180;DHT22;8196;49.428;10.906;2023-04-08T10:40:37;7.90;99.90
16180;DHT22;8196;49.428;10.906;2023-04-08T10:43:04;8.10;99.90
16180;DHT22;8196;49.428;10.906;2023-04-08T10:45:31;8.20;99.90
16180;DHT22;8196;49.428;10.906;2023-04-08T10:48:21;8.40;99.90
16180;DHT22;8196;49.428;10.906;2023-04-08T10:50:53;8.60;99.90
16180;DHT22;8196;49.428;10.906;2023-04-08T10:53:37;8.80;99.90
16180;DHT22;8196;49.428;10.906;2023-04-08T10:56:05;9.00;99.90
16180;DHT22;8196;49.428;10.906;2023-04-08T10:58:33;9.40;99.90
16180;DHT22;8196;49.428;10.906;2023-04-08T11:01:04;10.10;99.90
16180;DHT22;8196;49.428;10.906;2023-04-08T11:03:33;10.50;99.90
16180;DHT22;8196;49.428;10.906;2023-04-08T11:06:02;10.80;99.90
16180;DHT22;8196;49.428;10.906;2023-04-08T11:08:29;10.90;99.90
16180;DHT22;8196;49.428;10.906;2023-04-08T11:10:58;10.70;99.90
16180;DHT22;8196;49.428;10.906;2023-04-08T11:13:27;10.60;99.60
16180;DHT22;8196;49.428;10.906;2023-04-08T11:15:57;10.50;99.10
16180;DHT22;8196;49.428;10.906;2023-04-08T11:18:24;10.30;99.30
16180;DHT22;8196;49.428;10.906;2023-04-08T11:20:52;10.20;99.90
16180;DHT22;8196;49.428;10.906;2023-04-08T11:23:19;10.10;99.90
16180;DHT22;8196;49.428;10.906;2023-04-08T11:25:48;10.00;99.90
16180;DHT22;8196;49.428;10.906;2023-04-08T11:28:16;9.70;99.90
16180;DHT22;8196;49.428;10.906;2023-04-08T11:30:43;9.40;99.90
16180;DHT22;8196;49.428;10.906;2023-04-08T11:33:12;9.50;99.90
16180;DHT22;8196;49.428;10.906;2023-04-08T11:35:39;7.70;99.90
16180;DHT22;8196;49.428;10.906;2023-04-08T11:38:09;10.70;99.90
16180;DHT22;8196;49.428;10.906;2023-04-08T11:40:36;11.30;97.70
16180;DHT22;8196;49.428;10.906;2023-04-08T11:43:11;11.40;96.30
16180;DHT22;8196;49.428;10.906;2023-04-08T11:45:40;11.20;96.80
16180;DHT22;8196;49.428;10.906;2023-04-08T11:48:09;11.10;97.50
16180;DHT22;8196;49.428;10.906;2023-04-08T11:50:36;11.10;97.00
16180;DHT22;8196;49.428;10.906;2023-04-08T11:53:03;10.90;96.40
16180;DHT22;8196;49.428;10.906;2023-04-08T11:55:31;10.70;97.30
16180;DHT22;8196;49.428;10.906;2023-04-08T11:58:03;10.70;96.90
16180;DHT22;8196;49.428;10.906;2023-04-08T12:00:31;10.70;97.00
16180;DHT22;8196;49.428;10.906;2023-04-08T12:02:58;10.60;97.30
16180;DHT22;8196;49.428;10.906;2023-04-08T12:05:25;10.60;97.60
16180;DHT22;8196;49.428;10.906;2023-04-08T12:07:52;10.60;97.60
16180;DHT22;8196;49.428;10.906;2023-04-08T12:10:18;10.60;97.80
16180;DHT22;8196;49.428;10.906;2023-04-08T12:12:46;10.60;97.20
16180;DHT22;8196;49.428;10.906;2023-04-08T12:15:12;10.60;97.40
16180;DHT22;8196;49.428;10.906;2023-04-08T12:17:39;10.60;97.00
16180;DHT22;8196;49.428;10.906;2023-04-08T12:20:06;10.80;97.80
16180;DHT22;8196;49.428;10.906;2023-04-08T12:22:33;11.30;97.90
16180;DHT22;8196;49.428;10.906;2023-04-08T12:25:00;11.70;97.40
16180;DHT22;8196;49.428;10.906;2023-04-08T12:27:29;12.10;94.70
16180;DHT22;8196;49.428;10.906;2023-04-08T12:29:56;12.30;94.00
16180;DHT22;8196;49.428;10.906;2023-04-08T12:32:23;12.30;93.10
16180;DHT22;8196;49.428;10.906;2023-04-08T12:34:51;12.20;92.50
16180;DHT22;8196;49.428;10.906;2023-04-08T12:37:18;12.20;93.20
16180;DHT22;8196;49.428;10.906;2023-04-08T12:39:46;12.40;92.40
16180;DHT22;8196;49.428;10.906;2023-04-08T12:42:13;12.40;92.40
16180;DHT22;8196;49.428;10.906;2023-04-08T12:44:40;12.60;92.60
16180;DHT22;8196;49.428;10.906;2023-04-08T12:47:07;12.80;92.60
16180;DHT22;8196;49.428;10.906;2023-04-08T12:49:34;13.00;92.10
16180;DHT22;8196;49.428;10.906;2023-04-08T12:52:15;13.10;90.30
16180;DHT22;8196;49.428;10.906;2023-04-08T12:54:43;12.90;90.00
16180;DHT22;8196;49.428;10.906;2023-04-08T12:57:09;12.60;90.10
16180;DHT22;8196;49.428;10.906;2023-04-08T12:59:36;12.30;90.30
16180;DHT22;8196;49.428;10.906;2023-04-08T13:02:06;12.10;91.60
16180;DHT22;8196;49.428;10.906;2023-04-08T13:04:34;12.00;92.30
16180;DHT22;8196;49.428;10.906;2023-04-08T13:07:01;12.00;92.60
16180;DHT22;8196;49.428;10.906;2023-04-08T13:09:27;12.00;92.60
16180;DHT22;8196;49.428;10.906;2023-04-08T13:11:56;12.00;92.70
16180;DHT22;8196;49.428;10.906;2023-04-08T13:14:23;12.10;93.00
16180;DHT22;8196;49.428;10.906;2023-04-08T13:16:50;12.20;92.70
16180;DHT22;8196;49.428;10.906;2023-04-08T13:19:17;12.20;92.10
16180;DHT22;8196;49.428;10.906;2023-04-08T13:21:44;12.20;91.80
16180;DHT22;8196;49.428;10.906;2023-04-08T13:24:12;12.00;91.80
16180;DHT22;8196;49.428;10.906;2023-04-08T13:26:38;11.90;91.90
16180;DHT22;8196;49.428;10.906;2023-04-08T13:29:05;11.80;92.50
16180;DHT22;8196;49.428;10.906;2023-04-08T13:31:32;11.80;91.90
16180;DHT22;8196;49.428;10.906;2023-04-08T13:33:59;11.80;91.50
16180;DHT22;8196;49.428;10.906;2023-04-08T13:36:26;11.50;91.60
16180;DHT22;8196;49.428;10.906;2023-04-08T13:38:54;11.20;91.90
16180;DHT22;8196;49.428;10.906;2023-04-08T13:41:22;11.10;92.50
16180;DHT22;8196;49.428;10.906;2023-04-08T13:43:48;10.90;93.10
16180;DHT22;8196;49.428;10.906;2023-04-08T13:46:17;10.80;93.50
16180;DHT22;8196;49.428;10.906;2023-04-08T13:48:44;10.40;93.70
16180;DHT22;8196;49.428;10.906;2023-04-08T13:51:12;10.70;94.00
16180;DHT22;8196;49.428;10.906;2023-04-08T13:53:39;10.60;94.00
16180;DHT22;8196;49.428;10.906;2023-04-08T13:56:06;10.70;94.20
16180;DHT22;8196;49.428;10.906;2023-04-08T13:58:33;10.80;94.30
16180;DHT22;8196;49.428;10.906;2023-04-08T14:00:59;10.90;94.50
16180;DHT22;8196;49.428;10.906;2023-04-08T14:03:26;10.90;94.20
16180;DHT22;8196;49.428;10.906;2023-04-08T14:05:53;11.00;94.60
16180;DHT22;8196;49.428;10.906;2023-04-08T14:08:20;11.00;94.40
16180;DHT22;8196;49.428;10.906;2023-04-08T14:10:52;11.20;94.30
16180;DHT22;8196;49.428;10.906;2023-04-08T14:13:21;11.30;94.30
16180;DHT22;8196;49.428;10.906;2023-04-08T14:15:47;11.60;93.90
16180;DHT22;8196;49.428;10.906;2023-04-08T14:18:15;11.70;93.80
16180;DHT22;8196;49.428;10.906;2023-04-08T14:20:43;11.90;93.60
16180;DHT22;8196;49.428;10.906;2023-04-08T14:23:10;12.00;92.50
16180;DHT22;8196;49.428;10.906;2023-04-08T14:25:38;12.00;92.30
16180;DHT22;8196;49.428;10.906;2023-04-08T14:28:06;11.90;92.30
16180;DHT22;8196;49.428;10.906;2023-04-08T14:30:34;11.90;92.90
16180;DHT22;8196;49.428;10.906;2023-04-08T14:33:01;12.10;92.80
16180;DHT22;8196;49.428;10.906;2023-04-08T14:35:30;12.20;92.20
16180;DHT22;8196;49.428;10.906;2023-04-08T14:37:57;12.30;91.80
16180;DHT22;8196;49.428;10.906;2023-04-08T14:40:24;12.50;91.50
16180;DHT22;8196;49.428;10.906;2023-04-08T14:42:50;12.70;91.10
16180;DHT22;8196;49.428;10.906;2023-04-08T14:45:17;13.10;90.00
16180;DHT22;8196;49.428;10.906;2023-04-08T14:47:44;13.30;89.00
16180;DHT22;8196;49.428;10.906;2023-04-08T14:50:11;13.80;87.20
16180;DHT22;8196;49.428;10.906;2023-04-08T14:52:38;14.10;85.00
16180;DHT22;8196;49.428;10.906;2023-04-08T14:55:05;14.30;79.90
16180;DHT22;8196;49.428;10.906;2023-04-08T14:57:32;14.40;81.90
16180;DHT22;8196;49.428;10.906;2023-04-08T14:59:59;14.80;80.30
16180;DHT22;8196;49.428;10.906;2023-04-08T15:02:26;14.80;77.70
16180;DHT22;8196;49.428;10.906;2023-04-08T15:04:53;14.90;77.90
16180;DHT22;8196;49.428;10.906;2023-04-08T15:07:19;14.80;76.30
16180;DHT22;8196;49.428;10.906;2023-04-08T15:09:46;14.60;76.10
16180;DHT22;8196;49.428;10.906;2023-04-08T15:12:13;14.50;76.70
16180;DHT22;8196;49.428;10.906;2023-04-08T15:14:39;14.40;76.30
16180;DHT22;8196;49.428;10.906;2023-04-08T15:17:06;14.30;74.40
16180;DHT22;8196;49.428;10.906;2023-04-08T15:19:33;14.20;74.30
16180;DHT22;8196;49.428;10.906;2023-04-08T15:21:59;14.10;72.80
16180;DHT22;8196;49.428;10.906;2023-04-08T15:24:26;13.90;73.10
16180;DHT22;8196;49.428;10.906;2023-04-08T15:26:53;13.70;73.20
16180;DHT22;8196;49.428;10.906;2023-04-08T15:29:21;13.60;73.40
16180;DHT22;8196;49.428;10.906;2023-04-08T15:31:48;13.30;73.50
16180;DHT22;8196;49.428;10.906;2023-04-08T15:34:15;13.00;73.60
16180;DHT22;8196;49.428;10.906;2023-04-08T15:36:42;12.60;73.80
16180;DHT22;8196;49.428;10.906;2023-04-08T15:39:10;12.20;74.40
16180;DHT22;8196;49.428;10.906;2023-04-08T15:41:37;11.90;75.80
16180;DHT22;8196;49.428;10.906;2023-04-08T15:44:04;11.70;77.50
16180;DHT22;8196;49.428;10.906;2023-04-08T15:46:31;11.50;77.90
16180;DHT22;8196;49.428;10.906;2023-04-08T15:48:58;11.30;79.00
16180;DHT22;8196;49.428;10.906;2023-04-08T15:51:26;11.10;79.90
16180;DHT22;8196;49.428;10.906;2023-04-08T15:53:54;11.00;81.10
16180;DHT22;8196;49.428;10.906;2023-04-08T15:56:20;10.90;81.80
16180;DHT22;8196;49.428;10.906;2023-04-08T15:58:48;10.80;82.10
16180;DHT22;8196;49.428;10.906;2023-04-08T16:01:15;10.90;82.20
16180;DHT22;8196;49.428;10.906;2023-04-08T16:03:44;10.80;82.30
16180;DHT22;8196;49.428;10.906;2023-04-08T16:06:11;10.90;83.20
16180;DHT22;8196;49.428;10.906;2023-04-08T16:08:38;10.80;83.20
16180;DHT22;8196;49.428;10.906;2023-04-08T16:11:05;10.70;83.90
16180;DHT22;8196;49.428;10.906;2023-04-08T16:13:33;10.60;84.70